sensor_id;sensor_type;location;lat;lon;timestamp;pressure;altitude;pressure_sealevel;temperature;humidity
18858;BME280;9558;50.178;8.370;2023-05-02T00:01:53;98322.72;;;11.79;85.73
18858;BME280;9558;50.178;8.370;2023-05-02T00:04:40;98318.56;;;11.70;86.07
18858;BME280;9558;50.178;8.370;2023-05-02T00:07:27;98323.69;;;11.63;86.33
18858;BME280;9558;50.178;8.370;2023-05-02T00:10:13;98324.03;;;11.60;86.88
18858;BME280;9558;50.178;8.370;2023-05-02T00:13:02;98315.63;;;11.58;87.12
18858;BME280;9558;50.178;8.370;2023-05-02T00:15:48;98317.50;;;11.49;87.67
18858;BME280;9558;50.178;8.370;2023-05-02T00:18:35;98324.56;;;11.40;88.30
18858;BME280;9558;50.178;8.370;2023-05-02T00:21:22;98312.09;;;11.36;88.55
18858;BME280;9558;50.178;8.370;2023-05-02T00:24:08;98314.44;;;11.31;88.17
18858;BME280;9558;50.178;8.370;2023-05-02T00:26:55;98318.19;;;11.28;88.81
18858;BME280;9558;50.178;8.370;2023-05-02T00:29:43;98318.72;;;11.23;89.30
18858;BME280;9558;50.178;8.370;2023-05-02T00:32:32;98320.03;;;11.19;90.54
18858;BME280;9558;50.178;8.370;2023-05-02T00:35:19;98323.97;;;11.15;89.49
18858;BME280;9558;50.178;8.370;2023-05-02T00:38:06;98327.50;;;11.14;89.65
18858;BME280;9558;50.178;8.370;2023-05-02T00:40:53;98332.25;;;11.11;89.91
18858;BME280;9558;50.178;8.370;2023-05-02T00:43:39;98326.44;;;11.09;90.80
18858;BME280;9558;50.178;8.370;2023-05-02T00:46:28;98329.38;;;11.05;91.19
18858;BME280;9558;50.178;8.370;2023-05-02T00:49:15;98336.69;;;11.02;90.71
18858;BME280;9558;50.178;8.370;2023-05-02T00:52:01;98326.84;;;10.97;91.22
18858;BME280;9558;50.178;8.370;2023-05-02T00:54:48;98331.75;;;10.92;91.11
18858;BME280;9558;50.178;8.370;2023-05-02T00:57:35;98323.34;;;10.90;91.89
18858;BME280;9558;50.178;8.370;2023-05-02T01:00:29;98331.63;;;10.85;93.04
18858;BME280;9558;50.178;8.370;2023-05-02T01:03:23;98338.78;;;10.83;94.31
18858;BME280;9558;50.178;8.370;2023-05-02T01:06:23;98335.84;;;10.86;93.50
18858;BME280;9558;50.178;8.370;2023-05-02T01:09:23;98341.97;;;10.85;93.36
18858;BME280;9558;50.178;8.370;2023-05-02T01:12:17;98340.84;;;10.88;92.63
18858;BME280;9558;50.178;8.370;2023-05-02T01:15:08;98342.47;;;10.89;92.70
18858;BME280;9558;50.178;8.370;2023-05-02T01:17:59;98343.72;;;10.93;92.73
18858;BME280;9558;50.178;8.370;2023-05-02T01:20:54;98350.31;;;10.96;93.79
18858;BME280;9558;50.178;8.370;2023-05-02T01:23:49;98341.94;;;10.94;94.17
18858;BME280;9558;50.178;8.370;2023-05-02T01:26:45;98349.69;;;10.94;93.83
18858;BME280;9558;50.178;8.370;2023-05-02T01:29:39;98351.63;;;10.92;95.65
18858;BME280;9558;50.178;8.370;2023-05-02T01:32:26;98340.47;;;10.91;94.59
18858;BME280;9558;50.178;8.370;2023-05-02T01:35:16;98355.22;;;10.91;94.06
18858;BME280;9558;50.178;8.370;2023-05-02T01:38:05;98359.56;;;10.90;95.92
18858;BME280;9558;50.178;8.370;2023-05-02T01:40:53;98361.19;;;10.91;94.67
18858;BME280;9558;50.178;8.370;2023-05-02T01:43:43;98351.00;;;10.89;94.71
18858;BME280;9558;50.178;8.370;2023-05-02T01:46:35;98351.81;;;10.90;94.44
18858;BME280;9558;50.178;8.370;2023-05-02T01:49:23;98359.13;;;10.86;96.32
18858;BME280;9558;50.178;8.370;2023-05-02T01:52:12;98361.72;;;10.86;95.98
18858;BME280;9558;50.178;8.370;2023-05-02T01:55:00;98366.72;;;10.88;95.31
18858;BME280;9558;50.178;8.370;2023-05-02T01:57:50;98362.69;;;10.85;96.42
18858;BME280;9558;50.178;8.370;2023-05-02T02:00:39;98379.03;;;10.86;95.26
18858;BME280;9558;50.178;8.370;2023-05-02T02:03:29;98384.19;;;10.86;94.99
18858;BME280;9558;50.178;8.370;2023-05-02T02:06:17;98388.59;;;10.85;94.65
18858;BME280;9558;50.178;8.370;2023-05-02T02:09:05;98394.72;;;10.84;94.43
18858;BME280;9558;50.178;8.370;2023-05-02T02:11:59;98389.91;;;10.81;94.55
18858;BME280;9558;50.178;8.370;2023-05-02T02:14:51;98396.72;;;10.74;95.82
18858;BME280;9558;50.178;8.370;2023-05-02T02:17:42;98402.88;;;10.73;95.47
18858;BME280;9558;50.178;8.370;2023-05-02T02:20:33;98408.41;;;10.70;94.50
18858;BME280;9558;50.178;8.370;2023-05-02T02:23:25;98404.53;;;10.66;94.70
18858;BME280;9558;50.178;8.370;2023-05-02T02:26:12;98406.03;;;10.60;94.79
18858;BME280;9558;50.178;8.370;2023-05-02T02:29:00;98406.69;;;10.54;94.82
18858;BME280;9558;50.178;8.370;2023-05-02T02:31:47;98405.59;;;10.48;96.06
18858;BME280;9558;50.178;8.370;2023-05-02T02:34:34;98400.13;;;10.43;96.04
18858;BME280;9558;50.178;8.370;2023-05-02T02:37:25;98396.75;;;10.34;95.15
18858;BME280;9558;50.178;8.370;2023-05-02T02:40:20;98404.03;;;10.31;95.55
18858;BME280;9558;50.178;8.370;2023-05-02T02:43:11;98403.38;;;10.29;95.83
18858;BME280;9558;50.178;8.370;2023-05-02T02:46:13;98407.59;;;10.21;96.84
18858;BME280;9558;50.178;8.370;2023-05-02T02:49:12;98408.28;;;10.15;95.54
18858;BME280;9558;50.178;8.370;2023-05-02T02:52:05;98418.00;;;10.05;95.58
18858;BME280;9558;50.178;8.370;2023-05-02T02:54:58;98415.75;;;9.94;96.04
18858;BME280;9558;50.178;8.370;2023-05-02T02:57:50;98412.56;;;9.83;95.86
18858;BME280;9558;50.178;8.370;2023-05-02T03:00:41;98428.69;;;9.77;96.46
18858;BME280;9558;50.178;8.370;2023-05-02T03:03:28;98428.41;;;9.72;98.56
18858;BME280;9558;50.178;8.370;2023-05-02T03:06:16;98441.66;;;9.69;98.14
18858;BME280;9558;50.178;8.370;2023-05-02T03:09:04;98446.16;;;9.67;98.01
18858;BME280;9558;50.178;8.370;2023-05-02T03:11:52;98448.56;;;9.68;99.35
18858;BME280;9558;50.178;8.370;2023-05-02T03:14:39;98450.53;;;9.66;100.00
18858;BME280;9558;50.178;8.370;2023-05-02T03:17:26;98447.44;;;9.71;100.00
18858;BME280;9558;50.178;8.370;2023-05-02T03:20:13;98456.34;;;9.77;100.00
18858;BME280;9558;50.178;8.370;2023-05-02T03:22:59;98451.66;;;9.80;100.00
18858;BME280;9558;50.178;8.370;2023-05-02T03:25:46;98450.50;;;9.83;100.00
18858;BME280;9558;50.178;8.370;2023-05-02T03:28:34;98454.38;;;9.87;100.00
18858;BME280;9558;50.178;8.370;2023-05-02T03:31:21;98460.69;;;9.93;100.00
18858;BME280;9558;50.178;8.370;2023-05-02T03:34:08;98458.75;;;9.95;100.00
18858;BME280;9558;50.178;8.370;2023-05-02T03:36:55;98462.47;;;10.00;100.00
18858;BME280;9558;50.178;8.370;2023-05-02T03:39:42;98463.59;;;10.06;100.00
18858;BME280;9558;50.178;8.370;2023-05-02T03:42:29;98469.72;;;10.05;100.00
18858;BME280;9558;50.178;8.370;2023-05-02T03:45:17;98464.22;;;10.08;100.00
18858;BME280;9558;50.178;8.370;2023-05-02T03:48:04;98467.94;;;10.06;100.00
18858;BME280;9558;50.178;8.370;2023-05-02T03:50:51;98468.75;;;10.06;100.00
18858;BME280;9558;50.178;8.370;2023-05-02T03:53:38;98465.19;;;10.07;100.00
18858;BME280;9558;50.178;8.370;2023-05-02T03:56:25;98474.41;;;10.10;100.00
18858;BME280;9558;50.178;8.370;2023-05-02T03:59:12;98473.09;;;10.06;100.00
18858;BME280;9558;50.178;8.370;2023-05-02T04:02:00;98478.44;;;10.04;100.00
18858;BME280;9558;50.178;8.370;2023-05-02T04:04:48;98471.97;;;10.00;100.00
18858;BME280;9558;50.178;8.370;2023-05-02T04:07:34;98479.28;;;9.96;100.00
18858;BME280;9558;50.178;8.370;2023-05-02T04:10:21;98469.44;;;9.92;100.00
18858;BME280;9558;50.178;8.370;2023-05-02T04:13:08;98478.13;;;9.91;100.00
18858;BME280;9558;50.178;8.370;2023-05-02T04:15:55;98478.13;;;9.91;100.00
18858;BME280;9558;50.178;8.370;2023-05-02T04:18:43;98487.81;;;9.89;100.00
18858;BME280;9558;50.178;8.370;2023-05-02T04:21:29;98487.81;;;9.89;100.00
18858;BME280;9558;50.178;8.370;2023-05-02T04:24:16;98485.25;;;9.89;100.00
18858;BME280;9558;50.178;8.370;2023-05-02T04:27:03;98502.03;;;9.93;100.00
18858;BME280;9558;50.178;8.370;2023-05-02T04:29:52;98500.91;;;9.95;100.00
18858;BME280;9558;50.178;8.370;2023-05-02T04:32:38;98508.50;;;9.97;100.00
18858;BME280;9558;50.178;8.370;2023-05-02T04:35:27;98498.16;;;9.97;100.00
18858;BME280;9558;50.178;8.370;2023-05-02T04:38:13;98506.88;;;9.96;100.00
18858;BME280;9558;50.178;8.370;2023-05-02T04:41:02;98505.63;;;9.92;100.00
18858;BME280;9558;50.178;8.370;2023-05-02T04:43:48;98514.16;;;9.92;100.00
18858;BME280;9558;50.178;8.370;2023-05-02T04:46:35;98515.97;;;9.92;100.00
18858;BME280;9558;50.178;8.370;2023-05-02T04:49:22;98515.13;;;9.91;100.00
18858;BME280;9558;50.178;8.370;2023-05-02T04:52:10;98513.38;;;9.92;100.00
18858;BME280;9558;50.178;8.370;2023-05-02T04:54:57;98520.13;;;9.93;100.00
18858;BME280;9558;50.178;8.370;2023-05-02T04:57:43;98528.56;;;9.95;100.00
18858;BME280;9558;50.178;8.370;2023-05-02T05:00:30;98526.94;;;9.94;100.00
18858;BME280;9558;50.178;8.370;2023-05-02T05:03:17;98523.72;;;9.92;100.00
18858;BME280;9558;50.178;8.370;2023-05-02T05:06:04;98541.66;;;9.93;100.00
18858;BME280;9558;50.178;8.370;2023-05-02T05:08:52;98531.13;;;9.95;100.00
18858;BME280;9558;50.178;8.370;2023-05-02T05:11:38;98540.66;;;9.94;100.00
18858;BME280;9558;50.178;8.370;2023-05-02T05:14:27;98536.63;;;9.92;100.00
18858;BME280;9558;50.178;8.370;2023-05-02T05:17:15;98548.09;;;9.89;100.00
18858;BME280;9558;50.178;8.370;2023-05-02T05:20:03;98552.78;;;9.94;100.00
18858;BME280;9558;50.178;8.370;2023-05-02T05:22:50;98555.38;;;9.94;100.00
18858;BME280;9558;50.178;8.370;2023-05-02T05:25:38;98558.59;;;9.96;100.00
18858;BME280;9558;50.178;8.370;2023-05-02T05:28:25;98564.44;;;9.98;100.00
18858;BME280;9558;50.178;8.370;2023-05-02T05:31:13;98577.66;;;10.03;100.00
18858;BME280;9558;50.178;8.370;2023-05-02T05:34:01;98574.78;;;10.06;100.00
18858;BME280;9558;50.178;8.370;2023-05-02T05:36:48;98582.84;;;10.11;100.00
18858;BME280;9558;50.178;8.370;2023-05-02T05:39:35;98576.22;;;10.17;100.00
18858;BME280;9558;50.178;8.370;2023-05-02T05:42:23;98580.75;;;10.23;100.00
18858;BME280;9558;50.178;8.370;2023-05-02T05:45:11;98586.91;;;10.30;100.00
18858;BME280;9558;50.178;8.370;2023-05-02T05:47:57;98597.41;;;10.37;100.00
18858;BME280;9558;50.178;8.370;2023-05-02T05:50:44;98598.38;;;10.44;100.00
18858;BME280;9558;50.178;8.370;2023-05-02T05:53:31;98605.66;;;10.49;100.00
18858;BME280;9558;50.178;8.370;2023-05-02T05:56:18;98602.59;;;10.53;100.00
18858;BME280;9558;50.178;8.370;2023-05-02T05:59:06;98611.47;;;10.59;100.00
18858;BME280;9558;50.178;8.370;2023-05-02T06:01:53;98610.34;;;10.62;100.00
18858;BME280;9558;50.178;8.370;2023-05-02T06:04:39;98614.84;;;10.68;100.00
18858;BME280;9558;50.178;8.370;2023-05-02T06:07:26;98620.19;;;10.75;100.00
18858;BME280;9558;50.178;8.370;2023-05-02T06:10:13;98608.50;;;10.79;100.00
18858;BME280;9558;50.178;8.370;2023-05-02T06:13:00;98623.22;;;10.86;100.00
18858;BME280;9558;50.178;8.370;2023-05-02T06:15:48;98620.28;;;10.98;100.00
18858;BME280;9558;50.178;8.370;2023-05-02T06:18:35;98628.00;;;11.14;100.00
18858;BME280;9558;50.178;8.370;2023-05-02T06:21:21;98630.88;;;11.28;100.00
18858;BME280;9558;50.178;8.370;2023-05-02T06:24:08;98641.53;;;11.33;100.00
18858;BME280;9558;50.178;8.370;2023-05-02T06:26:55;98642.78;;;11.45;100.00
18858;BME280;9558;50.178;8.370;2023-05-02T06:29:41;98646.94;;;11.54;100.00
18858;BME280;9558;50.178;8.370;2023-05-02T06:32:30;98647.88;;;11.62;100.00
18858;BME280;9558;50.178;8.370;2023-05-02T06:35:17;98656.09;;;11.73;100.00
18858;BME280;9558;50.178;8.370;2023-05-02T06:38:04;98657.53;;;11.76;100.00
18858;BME280;9558;50.178;8.370;2023-05-02T06:40:51;98667.69;;;11.86;100.00
18858;BME280;9558;50.178;8.370;2023-05-02T06:43:38;98670.41;;;11.92;100.00
18858;BME280;9558;50.178;8.370;2023-05-02T06:46:27;98674.47;;;11.95;100.00
18858;BME280;9558;50.178;8.370;2023-05-02T06:49:15;98674.47;;;11.95;100.00
18858;BME280;9558;50.178;8.370;2023-05-02T06:52:02;98687.28;;;11.97;100.00
18858;BME280;9558;50.178;8.370;2023-05-02T06:54:49;98693.91;;;11.91;100.00
18858;BME280;9558;50.178;8.370;2023-05-02T06:57:36;98690.50;;;11.99;100.00
18858;BME280;9558;50.178;8.370;2023-05-02T07:00:23;98701.34;;;12.02;100.00
18858;BME280;9558;50.178;8.370;2023-05-02T07:03:10;98704.13;;;12.01;100.00
18858;BME280;9558;50.178;8.370;2023-05-02T07:05:58;98700.88;;;11.99;99.99
18858;BME280;9558;50.178;8.370;2023-05-02T07:08:45;98708.97;;;12.04;100.00
18858;BME280;9558;50.178;8.370;2023-05-02T07:11:32;98714.63;;;12.07;100.00
18858;BME280;9558;50.178;8.370;2023-05-02T07:14:19;98712.81;;;12.08;99.83
18858;BME280;9558;50.178;8.370;2023-05-02T07:17:07;98722.69;;;12.13;99.81
18858;BME280;9558;50.178;8.370;2023-05-02T07:19:54;98729.94;;;12.17;99.35
18858;BME280;9558;50.178;8.370;2023-05-02T07:22:42;98733.66;;;12.23;99.13
18858;BME280;9558;50.178;8.370;2023-05-02T07:25:29;98738.66;;;12.24;98.40
18858;BME280;9558;50.178;8.370;2023-05-02T07:28:15;98734.75;;;12.28;98.33
18858;BME280;9558;50.178;8.370;2023-05-02T07:31:03;98736.38;;;12.30;98.01
18858;BME280;9558;50.178;8.370;2023-05-02T07:33:50;98760.66;;;12.37;96.84
18858;BME280;9558;50.178;8.370;2023-05-02T07:36:36;98755.47;;;12.37;96.06
18858;BME280;9558;50.178;8.370;2023-05-02T07:39:25;98759.16;;;12.42;95.47
18858;BME280;9558;50.178;8.370;2023-05-02T07:42:11;98759.34;;;12.41;94.71
18858;BME280;9558;50.178;8.370;2023-05-02T07:44:58;98756.75;;;12.41;94.98
18858;BME280;9558;50.178;8.370;2023-05-02T07:47:45;98757.53;;;12.41;94.55
18858;BME280;9558;50.178;8.370;2023-05-02T07:50:32;98759.97;;;12.43;94.41
18858;BME280;9558;50.178;8.370;2023-05-02T07:53:18;98765.16;;;12.43;94.94
18858;BME280;9558;50.178;8.370;2023-05-02T07:56:07;98775.22;;;12.46;94.65
18858;BME280;9558;50.178;8.370;2023-05-02T07:58:53;98771.00;;;12.45;94.26
18858;BME280;9558;50.178;8.370;2023-05-02T08:01:40;98773.25;;;12.48;93.60
18858;BME280;9558;50.178;8.370;2023-05-02T08:04:27;98764.84;;;12.46;93.43
18858;BME280;9558;50.178;8.370;2023-05-02T08:07:14;98776.06;;;12.38;92.99
18858;BME280;9558;50.178;8.370;2023-05-02T08:10:01;98777.84;;;12.38;93.32
18858;BME280;9558;50.178;8.370;2023-05-02T08:12:49;98789.88;;;12.39;93.06
18858;BME280;9558;50.178;8.370;2023-05-02T08:15:36;98786.91;;;12.42;92.75
18858;BME280;9558;50.178;8.370;2023-05-02T08:18:22;98786.22;;;12.48;92.34
18858;BME280;9558;50.178;8.370;2023-05-02T08:21:09;98789.03;;;12.61;92.19
18858;BME280;9558;50.178;8.370;2023-05-02T08:23:56;98788.28;;;12.76;90.99
18858;BME280;9558;50.178;8.370;2023-05-02T08:26:43;98785.06;;;12.97;90.00
18858;BME280;9558;50.178;8.370;2023-05-02T08:29:31;98793.16;;;13.17;89.05
18858;BME280;9558;50.178;8.370;2023-05-02T08:32:18;98796.75;;;13.39;88.08
18858;BME280;9558;50.178;8.370;2023-05-02T08:35:06;98798.97;;;13.57;87.29
18858;BME280;9558;50.178;8.370;2023-05-02T08:37:52;98802.56;;;13.71;85.02
18858;BME280;9558;50.178;8.370;2023-05-02T08:40:39;98807.78;;;13.86;85.02
18858;BME280;9558;50.178;8.370;2023-05-02T08:43:26;98810.28;;;13.94;84.86
18858;BME280;9558;50.178;8.370;2023-05-02T08:46:16;98818.09;;;14.09;84.17
18858;BME280;9558;50.178;8.370;2023-05-02T08:49:04;98819.66;;;14.25;83.75
18858;BME280;9558;50.178;8.370;2023-05-02T08:51:51;98822.41;;;14.39;82.21
18858;BME280;9558;50.178;8.370;2023-05-02T08:54:40;98823.28;;;14.46;80.82
18858;BME280;9558;50.178;8.370;2023-05-02T08:57:28;98830.69;;;14.42;78.79
18858;BME280;9558;50.178;8.370;2023-05-02T09:00:15;98831.28;;;14.44;77.98
18858;BME280;9558;50.178;8.370;2023-05-02T09:03:06;98838.69;;;14.41;78.20
18858;BME280;9558;50.178;8.370;2023-05-02T09:06:04;98840.63;;;14.39;78.65
18858;BME280;9558;50.178;8.370;2023-05-02T09:08:51;98835.69;;;14.44;79.44
18858;BME280;9558;50.178;8.370;2023-05-02T09:11:38;98845.47;;;14.42;78.85
18858;BME280;9558;50.178;8.370;2023-05-02T09:14:26;98840.81;;;14.37;78.37
18858;BME280;9558;50.178;8.370;2023-05-02T09:17:13;98842.34;;;14.31;78.60
18858;BME280;9558;50.178;8.370;2023-05-02T09:20:01;98845.16;;;14.30;78.45
18858;BME280;9558;50.178;8.370;2023-05-02T09:22:49;98856.03;;;14.33;76.83
18858;BME280;9558;50.178;8.370;2023-05-02T09:25:36;98853.47;;;14.40;77.67
18858;BME280;9558;50.178;8.370;2023-05-02T09:28:36;98855.06;;;14.56;77.67
18858;BME280;9558;50.178;8.370;2023-05-02T09:31:25;98854.44;;;14.69;77.74
18858;BME280;9558;50.178;8.370;2023-05-02T09:34:14;98859.97;;;14.81;75.43
18858;BME280;9558;50.178;8.370;2023-05-02T09:37:02;98858.50;;;14.93;76.27
18858;BME280;9558;50.178;8.370;2023-05-02T09:40:05;98856.78;;;15.07;74.66
18858;BME280;9558;50.178;8.370;2023-05-02T09:42:52;98866.66;;;15.33;75.97
18858;BME280;9558;50.178;8.370;2023-05-02T09:45:39;98867.94;;;15.44;72.25
18858;BME280;9558;50.178;8.370;2023-05-02T09:48:26;98859.50;;;15.70;73.47
18858;BME280;9558;50.178;8.370;2023-05-02T09:51:16;98869.50;;;15.95;72.86
18858;BME280;9558;50.178;8.370;2023-05-02T09:54:04;98864.81;;;16.26;72.57
18858;BME280;9558;50.178;8.370;2023-05-02T09:56:51;98860.09;;;16.56;71.69
18858;BME280;9558;50.178;8.370;2023-05-02T09:59:51;98869.41;;;16.79;70.83
18858;BME280;9558;50.178;8.370;2023-05-02T10:02:38;98875.25;;;16.81;66.63
18858;BME280;9558;50.178;8.370;2023-05-02T10:05:26;98878.84;;;16.80;67.97
18858;BME280;9558;50.178;8.370;2023-05-02T10:08:13;98878.06;;;16.86;68.44
18858;BME280;9558;50.178;8.370;2023-05-02T10:11:06;98869.81;;;16.75;66.70
18858;BME280;9558;50.178;8.370;2023-05-02T10:13:53;98862.34;;;16.72;66.76
18858;BME280;9558;50.178;8.370;2023-05-02T10:16:52;98855.75;;;16.76;67.27
18858;BME280;9558;50.178;8.370;2023-05-02T10:19:56;98850.50;;;16.76;67.68
18858;BME280;9558;50.178;8.370;2023-05-02T10:22:46;98850.09;;;16.73;65.11
18858;BME280;9558;50.178;8.370;2023-05-02T10:25:35;98853.53;;;16.73;66.83
18858;BME280;9558;50.178;8.370;2023-05-02T10:28:24;98859.75;;;16.72;65.78
18858;BME280;9558;50.178;8.370;2023-05-02T10:31:12;98857.72;;;16.74;66.12
18858;BME280;9558;50.178;8.370;2023-05-02T10:33:59;98860.78;;;16.85;66.97
18858;BME280;9558;50.178;8.370;2023-05-02T10:36:48;98851.91;;;16.86;66.08
18858;BME280;9558;50.178;8.370;2023-05-02T10:39:35;98844.50;;;16.96;65.48
18858;BME280;9558;50.178;8.370;2023-05-02T10:42:22;98848.75;;;16.97;64.23
18858;BME280;9558;50.178;8.370;2023-05-02T10:45:11;98855.19;;;17.01;61.41
18858;BME280;9558;50.178;8.370;2023-05-02T10:48:15;98850.56;;;17.10;63.38
18858;BME280;9558;50.178;8.370;2023-05-02T10:51:02;98849.38;;;17.19;62.53
18858;BME280;9558;50.178;8.370;2023-05-02T10:53:50;98838.09;;;17.05;59.52
18858;BME280;9558;50.178;8.370;2023-05-02T10:57:00;98844.13;;;16.92;59.45
18858;BME280;9558;50.178;8.370;2023-05-02T10:59:48;98840.09;;;16.90;61.56
18858;BME280;9558;50.178;8.370;2023-05-02T11:02:47;98842.53;;;16.98;62.96
18858;BME280;9558;50.178;8.370;2023-05-02T11:06:03;98825.22;;;17.17;63.60
18858;BME280;9558;50.178;8.370;2023-05-02T11:08:50;98830.03;;;17.27;62.60
18858;BME280;9558;50.178;8.370;2023-05-02T11:11:38;98832.88;;;17.32;61.00
18858;BME280;9558;50.178;8.370;2023-05-02T11:14:42;98831.47;;;17.16;60.53
18858;BME280;9558;50.178;8.370;2023-05-02T11:18:00;98839.69;;;17.13;61.21
18858;BME280;9558;50.178;8.370;2023-05-02T11:20:46;98833.47;;;17.07;60.02
18858;BME280;9558;50.178;8.370;2023-05-02T11:23:33;98834.88;;;16.97;58.06
18858;BME280;9558;50.178;8.370;2023-05-02T11:26:21;98827.41;;;16.87;57.13
18858;BME280;9558;50.178;8.370;2023-05-02T11:29:10;98818.75;;;16.86;58.03
18858;BME280;9558;50.178;8.370;2023-05-02T11:31:57;98823.63;;;16.89;57.85
18858;BME280;9558;50.178;8.370;2023-05-02T11:34:45;98822.78;;;16.89;57.64
18858;BME280;9558;50.178;8.370;2023-05-02T11:37:32;98818.34;;;16.83;58.33
18858;BME280;9558;50.178;8.370;2023-05-02T11:40:19;98823.94;;;16.73;57.48
18858;BME280;9558;50.178;8.370;2023-05-02T11:43:13;98821.13;;;16.68;57.59
18858;BME280;9558;50.178;8.370;2023-05-02T11:46:00;98830.78;;;16.67;58.39
18858;BME280;9558;50.178;8.370;2023-05-02T11:48:47;98845.06;;;16.71;60.06
18858;BME280;9558;50.178;8.370;2023-05-02T11:51:36;98856.91;;;16.67;61.56
18858;BME280;9558;50.178;8.370;2023-05-02T11:54:23;98854.91;;;16.76;63.44
18858;BME280;9558;50.178;8.370;2023-05-02T11:57:10;98851.53;;;16.89;62.78
18858;BME280;9558;50.178;8.370;2023-05-02T11:59:57;98855.97;;;16.88;62.21
18858;BME280;9558;50.178;8.370;2023-05-02T12:02:45;98854.19;;;16.96;63.04
18858;BME280;9558;50.178;8.370;2023-05-02T12:05:32;98842.50;;;17.12;63.44
18858;BME280;9558;50.178;8.370;2023-05-02T12:08:25;98851.38;;;17.44;63.87
18858;BME280;9558;50.178;8.370;2023-05-02T12:11:13;98846.50;;;17.74;63.65
18858;BME280;9558;50.178;8.370;2023-05-02T12:14:01;98851.91;;;17.93;62.67
18858;BME280;9558;50.178;8.370;2023-05-02T12:16:47;98854.66;;;18.11;61.56
18858;BME280;9558;50.178;8.370;2023-05-02T12:19:34;98858.84;;;18.26;60.87
18858;BME280;9558;50.178;8.370;2023-05-02T12:22:22;98852.28;;;18.48;60.28
18858;BME280;9558;50.178;8.370;2023-05-02T12:25:11;98867.19;;;18.55;60.25
18858;BME280;9558;50.178;8.370;2023-05-02T12:27:59;98860.59;;;18.45;55.30
18858;BME280;9558;50.178;8.370;2023-05-02T12:30:47;98861.25;;;18.34;56.37
18858;BME280;9558;50.178;8.370;2023-05-02T12:33:41;98854.38;;;18.40;58.11
18858;BME280;9558;50.178;8.370;2023-05-02T12:36:27;98866.88;;;18.38;58.09
18858;BME280;9558;50.178;8.370;2023-05-02T12:39:14;98863.88;;;18.27;55.84
18858;BME280;9558;50.178;8.370;2023-05-02T12:42:09;98872.22;;;18.04;55.42
18858;BME280;9558;50.178;8.370;2023-05-02T12:44:56;98880.53;;;17.74;57.12
18858;BME280;9558;50.178;8.370;2023-05-02T12:47:46;98893.66;;;17.48;58.25
18858;BME280;9558;50.178;8.370;2023-05-02T12:50:34;98888.00;;;17.24;59.49
18858;BME280;9558;50.178;8.370;2023-05-02T12:53:37;98898.44;;;17.04;59.71
18858;BME280;9558;50.178;8.370;2023-05-02T12:56:25;98904.06;;;16.94;60.49
18858;BME280;9558;50.178;8.370;2023-05-02T12:59:26;98906.81;;;16.86;60.43
18858;BME280;9558;50.178;8.370;2023-05-02T13:02:13;98903.56;;;16.70;60.50
18858;BME280;9558;50.178;8.370;2023-05-02T13:05:00;98904.97;;;16.66;61.27
18858;BME280;9558;50.178;8.370;2023-05-02T13:07:47;98884.63;;;16.62;61.63
18858;BME280;9558;50.178;8.370;2023-05-02T13:10:33;98893.88;;;16.57;61.29
18858;BME280;9558;50.178;8.370;2023-05-02T13:13:20;98894.66;;;16.51;61.85
18858;BME280;9558;50.178;8.370;2023-05-02T13:16:08;98898.25;;;16.50;61.49
18858;BME280;9558;50.178;8.370;2023-05-02T13:18:55;98902.84;;;16.41;60.83
18858;BME280;9558;50.178;8.370;2023-05-02T13:21:42;98905.03;;;16.31;60.28
18858;BME280;9558;50.178;8.370;2023-05-02T13:24:29;98902.03;;;16.34;61.40
18858;BME280;9558;50.178;8.370;2023-05-02T13:27:16;98899.25;;;16.42;61.52
18858;BME280;9558;50.178;8.370;2023-05-02T13:30:03;98895.84;;;16.42;60.58
18858;BME280;9558;50.178;8.370;2023-05-02T13:32:51;98895.00;;;16.41;59.96
18858;BME280;9558;50.178;8.370;2023-05-02T13:35:38;98899.06;;;16.44;59.43
18858;BME280;9558;50.178;8.370;2023-05-02T13:38:25;98907.28;;;16.41;58.76
18858;BME280;9558;50.178;8.370;2023-05-02T13:41:12;98899.06;;;16.44;58.83
18858;BME280;9558;50.178;8.370;2023-05-02T13:43:58;98910.75;;;16.62;60.69
18858;BME280;9558;50.178;8.370;2023-05-02T13:46:45;98892.94;;;16.72;58.10
18858;BME280;9558;50.178;8.370;2023-05-02T13:49:33;98907.63;;;16.80;57.47
18858;BME280;9558;50.178;8.370;2023-05-02T13:52:20;98905.03;;;16.86;56.11
18858;BME280;9558;50.178;8.370;2023-05-02T13:55:08;98904.00;;;16.87;56.29
18858;BME280;9558;50.178;8.370;2023-05-02T13:57:54;98918.13;;;16.93;55.98
18858;BME280;9558;50.178;8.370;2023-05-02T14:00:41;98908.44;;;16.87;54.78
18858;BME280;9558;50.178;8.370;2023-05-02T14:03:28;98911.03;;;16.73;54.00
18858;BME280;9558;50.178;8.370;2023-05-02T14:06:16;98909.97;;;16.61;53.99
18858;BME280;9558;50.178;8.370;2023-05-02T14:09:03;98916.38;;;16.52;53.88
18858;BME280;9558;50.178;8.370;2023-05-02T14:11:50;98907.88;;;16.36;54.00
18858;BME280;9558;50.178;8.370;2023-05-02T14:14:36;98901.00;;;16.29;54.69
18858;BME280;9558;50.178;8.370;2023-05-02T14:17:23;98904.19;;;16.24;55.37
18858;BME280;9558;50.178;8.370;2023-05-02T14:20:11;98909.81;;;16.21;55.52
18858;BME280;9558;50.178;8.370;2023-05-02T14:22:59;98911.38;;;16.15;55.50
18858;BME280;9558;50.178;8.370;2023-05-02T14:25:46;98919.81;;;16.11;56.14
18858;BME280;9558;50.178;8.370;2023-05-02T14:28:32;98916.56;;;16.09;56.51
18858;BME280;9558;50.178;8.370;2023-05-02T14:31:19;98918.19;;;16.10;55.22
18858;BME280;9558;50.178;8.370;2023-05-02T14:34:06;98912.53;;;16.06;55.47
18858;BME280;9558;50.178;8.370;2023-05-02T14:36:53;98919.16;;;16.02;55.13
18858;BME280;9558;50.178;8.370;2023-05-02T14:39:41;98933.00;;;16.02;56.05
18858;BME280;9558;50.178;8.370;2023-05-02T14:42:30;98927.16;;;16.00;55.67
18858;BME280;9558;50.178;8.370;2023-05-02T14:45:17;98933.38;;;15.99;56.05
18858;BME280;9558;50.178;8.370;2023-05-02T14:48:04;98927.91;;;15.94;56.53
18858;BME280;9558;50.178;8.370;2023-05-02T14:50:51;98944.97;;;15.90;56.28
18858;BME280;9558;50.178;8.370;2023-05-02T14:53:38;98937.69;;;15.85;56.40
18858;BME280;9558;50.178;8.370;2023-05-02T14:56:26;98932.69;;;15.84;56.64
18858;BME280;9558;50.178;8.370;2023-05-02T14:59:13;98938.09;;;15.82;57.00
18858;BME280;9558;50.178;8.370;2023-05-02T15:02:00;98939.13;;;15.88;57.45
18858;BME280;9558;50.178;8.370;2023-05-02T15:04:47;98945.22;;;15.95;58.80